createdAt,value
2022-09-30T00:00:28.184Z,85.02
2022-09-30T00:05:29.739Z,84.84
2022-09-30T00:10:31.501Z,85.21
2022-09-30T00:15:33.222Z,85.02
2022-09-30T00:20:35.228Z,85.09
2022-09-30T00:25:36.759Z,85.87
2022-09-30T00:30:38.307Z,85.27
2022-09-30T00:35:39.863Z,85.99
2022-09-30T00:40:41.526Z,86.00
2022-09-30T00:45:54.753Z,86.21
2022-09-30T00:50:56.808Z,86.60
2022-09-30T00:56:13.510Z,86.72
2022-09-30T01:01:15.229Z,86.79
2022-09-30T01:06:21.890Z,86.85
2022-09-30T01:11:23.532Z,87.00
2022-09-30T01:16:46.276Z,87.34
2022-09-30T01:22:14.070Z,87.43
2022-09-30T01:27:55.185Z,87.12
2022-09-30T01:33:32.348Z,86.93
2022-09-30T01:38:55.573Z,87.02
2022-09-30T01:44:19.469Z,87.49
2022-09-30T01:49:32.100Z,86.78
2022-09-30T01:54:45.997Z,87.24
2022-09-30T02:00:15.460Z,86.88
2022-09-30T02:05:32.104Z,87.04
2022-09-30T02:10:44.645Z,87.42
2022-09-30T02:15:52.272Z,87.58
2022-09-30T02:21:01.362Z,87.52
2022-09-30T02:26:07.823Z,87.55
2022-09-30T02:31:11.273Z,87.63
2022-09-30T02:36:53.425Z,88.05
2022-09-30T02:42:02.673Z,88.38
2022-09-30T02:47:11.988Z,88.84
2022-09-30T02:52:25.496Z,88.61
2022-09-30T02:57:39.429Z,88.97
2022-09-30T03:02:42.302Z,89.37
2022-09-30T03:07:43.873Z,88.87
2022-09-30T03:13:00.781Z,89.31
2022-09-30T03:18:26.247Z,89.67
2022-09-30T03:23:44.728Z,89.55
2022-09-30T03:29:01.072Z,89.92
2022-09-30T03:34:35.405Z,89.73
2022-09-30T03:40:17.636Z,90.08
2022-09-30T03:45:25.267Z,89.67
2022-09-30T03:50:29.269Z,89.87
2022-09-30T03:55:33.466Z,89.90
2022-09-30T04:00:35.429Z,90.28
2022-09-30T04:05:37.024Z,90.02
2022-09-30T04:10:42.340Z,90.37
2022-09-30T04:15:43.872Z,90.46
2022-09-30T04:20:45.456Z,90.28
2022-09-30T04:25:53.134Z,90.29
2022-09-30T04:30:54.684Z,90.45
2022-09-30T04:35:57.474Z,90.64
2022-09-30T04:41:03.949Z,90.86
2022-09-30T04:46:06.079Z,90.82
2022-09-30T04:51:07.690Z,91.14
2022-09-30T04:56:09.696Z,91.40
2022-09-30T05:01:14.479Z,91.23
2022-09-30T05:06:17.007Z,91.20
2022-09-30T05:11:20.333Z,91.13
2022-09-30T05:16:21.951Z,91.69
2022-09-30T05:21:23.516Z,92.23
2022-09-30T05:26:25.272Z,92.38
2022-09-30T05:31:27.177Z,92.02
2022-09-30T05:36:29.288Z,92.13
2022-09-30T05:41:30.855Z,91.77
2022-09-30T05:46:32.426Z,91.72
2022-09-30T05:51:34.142Z,91.10
2022-09-30T05:56:35.961Z,90.30
2022-09-30T06:01:37.664Z,89.96
2022-09-30T06:06:39.229Z,90.13
2022-09-30T06:11:42.600Z,90.05
2022-09-30T06:16:44.211Z,90.39
2022-09-30T06:21:45.775Z,90.06
2022-09-30T06:26:47.326Z,90.02
2022-09-30T06:31:48.992Z,90.01
2022-09-30T06:36:50.579Z,89.48
2022-09-30T06:41:52.124Z,89.91
2022-09-30T06:46:54.842Z,89.09
2022-09-30T06:51:56.673Z,89.68
2022-09-30T06:56:58.213Z,89.39
2022-09-30T07:01:59.768Z,88.59
2022-09-30T07:07:01.369Z,88.98
2022-09-30T07:12:02.915Z,88.94
2022-09-30T07:17:06.478Z,88.46
2022-09-30T07:22:26.724Z,88.99
2022-09-30T07:27:29.433Z,88.91
2022-09-30T07:32:31.383Z,89.17
2022-09-30T07:37:36.125Z,88.93
2022-09-30T07:42:44.830Z,88.89
2022-09-30T07:47:52.525Z,88.80
2022-09-30T07:52:55.944Z,88.33
2022-09-30T07:57:57.505Z,88.72
2022-09-30T08:02:59.054Z,88.22
2022-09-30T08:08:00.928Z,88.07
2022-09-30T08:13:05.654Z,88.05
2022-09-30T08:18:08.061Z,87.22
2022-09-30T08:23:09.666Z,87.75
2022-09-30T08:28:11.925Z,87.56
2022-09-30T08:33:14.204Z,86.75
2022-09-30T08:38:15.850Z,86.84
2022-09-30T08:43:40.091Z,86.80
2022-09-30T08:48:47.350Z,86.31
2022-09-30T08:53:49.809Z,84.98
2022-09-30T08:58:57.685Z,85.63
2022-09-30T09:04:02.308Z,85.72
2022-09-30T09:09:19.044Z,84.44
2022-09-30T09:14:39.979Z,84.70
2022-09-30T09:20:05.397Z,83.96
2022-09-30T09:25:14.514Z,83.75
2022-09-30T09:30:19.481Z,82.34
2022-09-30T09:35:42.833Z,82.61
2022-09-30T09:40:59.819Z,82.77
2022-09-30T09:46:15.419Z,82.79
2022-09-30T09:51:29.259Z,81.91
2022-09-30T09:56:33.679Z,81.77
2022-09-30T10:01:38.419Z,82.17
2022-09-30T10:06:47.269Z,82.84
2022-09-30T10:11:48.979Z,80.71
2022-09-30T10:16:50.615Z,82.30
2022-09-30T10:22:12.495Z,80.41
2022-09-30T10:27:32.653Z,82.03
2022-09-30T10:32:35.795Z,82.24
2022-09-30T10:37:37.405Z,80.22
2022-09-30T10:42:46.328Z,77.96
2022-09-30T10:47:51.015Z,75.68
2022-09-30T10:52:58.763Z,75.06
2022-09-30T10:58:30.494Z,76.08
2022-09-30T11:04:05.237Z,75.98
2022-09-30T11:09:17.423Z,72.12
2022-09-30T11:14:31.141Z,73.24
2022-09-30T11:19:51.038Z,73.48
2022-09-30T11:24:55.423Z,72.31
2022-09-30T11:30:19.724Z,72.31
2022-09-30T11:35:52.291Z,69.54
2022-09-30T11:41:00.684Z,70.64
2022-09-30T11:46:32.542Z,68.81
2022-09-30T11:51:59.295Z,67.28
2022-09-30T11:57:23.639Z,70.11
2022-09-30T12:02:40.440Z,68.73
2022-09-30T12:07:44.962Z,68.59
2022-09-30T12:12:50.093Z,67.17
2022-09-30T12:17:59.888Z,65.26
2022-09-30T12:23:22.713Z,66.58
2022-09-30T12:29:12.848Z,65.66
2022-09-30T12:34:31.857Z,64.46
2022-09-30T12:39:40.532Z,66.09
2022-09-30T12:45:17.376Z,67.10
2022-09-30T12:50:22.121Z,66.50
2022-09-30T12:55:41.409Z,66.94
2022-09-30T13:01:00.744Z,66.06
2022-09-30T13:06:06.597Z,65.11
2022-09-30T13:11:31.310Z,65.00
2022-09-30T13:17:03.041Z,64.12
2022-09-30T13:22:20.172Z,63.81
2022-09-30T13:27:35.789Z,64.78
2022-09-30T13:32:38.009Z,63.58
2022-09-30T13:37:40.417Z,64.66
2022-09-30T13:42:50.380Z,64.89
2022-09-30T13:48:23.704Z,65.08
2022-09-30T13:53:34.860Z,64.26
2022-09-30T13:58:52.819Z,64.58
2022-09-30T14:04:32.129Z,65.15
2022-09-30T14:09:33.676Z,63.94
2022-09-30T14:15:03.162Z,64.69
2022-09-30T14:20:13.581Z,64.63
2022-09-30T14:25:19.132Z,63.54
2022-09-30T14:30:23.389Z,63.38
2022-09-30T14:35:29.597Z,63.03
2022-09-30T14:40:34.456Z,61.93
2022-09-30T14:45:39.054Z,60.19
2022-09-30T14:51:09.657Z,62.06
2022-09-30T14:56:27.647Z,62.31
2022-09-30T15:01:35.272Z,63.24
2022-09-30T15:06:39.200Z,63.88
2022-09-30T15:11:41.495Z,64.62
2022-09-30T15:17:05.877Z,65.18
2022-09-30T15:22:11.435Z,65.83
2022-09-30T15:27:35.344Z,66.73
2022-09-30T15:32:37.004Z,67.07
2022-09-30T15:37:38.665Z,67.65
2022-09-30T15:43:00.006Z,68.27
2022-09-30T15:48:05.028Z,68.72
2022-09-30T15:53:24.894Z,68.96
2022-09-30T15:58:26.867Z,69.62
2022-09-30T16:03:30.357Z,70.33
2022-09-30T16:08:37.148Z,71.02
2022-09-30T16:13:43.436Z,71.97
2022-09-30T16:18:45.350Z,72.44
2022-09-30T16:23:46.933Z,72.70
2022-09-30T16:28:48.463Z,73.23
2022-09-30T16:33:50.139Z,73.45
2022-09-30T16:38:51.747Z,73.40
2022-09-30T16:43:53.280Z,73.63
2022-09-30T16:48:55.508Z,73.72
2022-09-30T16:53:58.033Z,74.52
2022-09-30T16:58:59.641Z,75.82
2022-09-30T17:04:01.497Z,75.92
2022-09-30T17:09:04.139Z,76.89
2022-09-30T17:14:06.269Z,77.39
2022-09-30T17:19:08.176Z,77.92
2022-09-30T17:24:09.706Z,78.39
2022-09-30T17:34:32.954Z,79.38
2022-09-30T17:39:34.595Z,79.79
2022-09-30T17:44:36.201Z,79.57
2022-09-30T17:49:37.882Z,79.86
2022-09-30T17:54:39.552Z,79.44
2022-09-30T17:59:43.399Z,79.79
2022-09-30T18:04:45.202Z,79.70
2022-09-30T18:09:48.204Z,80.09
2022-09-30T18:14:50.231Z,80.11
2022-09-30T18:19:52.077Z,80.42
2022-09-30T18:25:12.353Z,80.75
2022-09-30T18:30:14.494Z,81.13
2022-09-30T18:35:18.612Z,81.42
2022-09-30T18:40:24.843Z,81.76
2022-09-30T18:45:29.791Z,81.84
2022-09-30T18:50:33.271Z,83.66
2022-09-30T18:55:38.419Z,83.02
2022-09-30T19:00:40.198Z,83.10
2022-09-30T19:05:42.411Z,83.51
2022-09-30T19:10:44.831Z,83.97
2022-09-30T19:15:48.376Z,84.13
2022-09-30T19:20:50.486Z,84.69
2022-09-30T19:25:54.999Z,84.59
2022-09-30T19:31:07.466Z,84.85
2022-09-30T19:36:15.750Z,85.75
2022-09-30T19:41:19.420Z,86.30
2022-09-30T19:46:21.774Z,86.44
2022-09-30T19:51:23.775Z,86.81
2022-09-30T19:56:26.071Z,87.54
2022-09-30T20:01:29.300Z,87.78
2022-09-30T20:06:32.395Z,87.97
2022-09-30T20:11:37.232Z,87.82
2022-09-30T20:16:39.090Z,88.07
2022-09-30T20:21:43.731Z,87.89
2022-09-30T20:26:46.771Z,88.09
2022-09-30T20:31:49.270Z,88.54
2022-09-30T20:36:52.141Z,88.75
2022-09-30T20:41:57.034Z,88.67
2022-09-30T20:46:59.365Z,88.94
2022-09-30T20:52:04.000Z,89.14
2022-09-30T20:57:07.818Z,89.51
2022-09-30T21:02:12.906Z,89.64
2022-09-30T21:07:14.551Z,89.97
2022-09-30T21:12:19.013Z,89.51
2022-09-30T21:17:20.762Z,89.79
2022-09-30T21:22:22.362Z,89.58
2022-09-30T21:27:23.903Z,89.72
2022-09-30T21:32:25.479Z,89.95
2022-09-30T21:37:27.078Z,89.78
2022-09-30T21:42:28.651Z,89.43
2022-09-30T21:47:30.211Z,89.16
2022-09-30T21:52:32.944Z,89.23
2022-09-30T21:57:34.663Z,90.76
2022-09-30T22:02:36.659Z,90.93
2022-09-30T22:07:38.967Z,90.83
2022-09-30T22:12:40.590Z,91.27
2022-09-30T22:17:42.121Z,91.38
2022-09-30T22:22:43.732Z,91.44
2022-09-30T22:27:46.231Z,91.50
2022-09-30T22:33:07.835Z,91.15
2022-09-30T22:38:14.922Z,90.96
2022-09-30T22:43:16.839Z,91.04
2022-09-30T22:48:18.386Z,91.69
2022-09-30T22:53:19.939Z,91.89
2022-09-30T22:58:24.337Z,91.10
2022-09-30T23:03:26.043Z,91.06
2022-09-30T23:08:33.353Z,91.04
2022-09-30T23:13:35.366Z,90.73
2022-09-30T23:18:36.996Z,91.07
2022-09-30T23:23:39.657Z,91.28
2022-09-30T23:28:42.049Z,91.60
2022-09-30T23:33:49.525Z,91.71
2022-09-30T23:38:51.088Z,92.01
2022-09-30T23:43:52.644Z,92.59
2022-09-30T23:48:54.261Z,91.89
2022-09-30T23:53:56.139Z,91.59
2022-09-30T23:58:58.962Z,91.70
